createdAt,value
2019-03-04T00:01:58.575Z,91.40
2019-03-04T00:04:26.253Z,91.40
2019-03-04T00:06:53.826Z,91.30
2019-03-04T00:09:21.444Z,91.40
2019-03-04T00:11:48.943Z,91.30
2019-03-04T00:14:16.501Z,91.50
2019-03-04T00:16:44.019Z,91.40
2019-03-04T00:19:11.533Z,91.90
2019-03-04T00:21:39.104Z,91.60
2019-03-04T00:24:06.999Z,91.40
2019-03-04T00:26:34.572Z,91.20
2019-03-04T00:29:02.123Z,91.00
2019-03-04T00:31:29.806Z,91.10
2019-03-04T00:33:57.328Z,91.20
2019-03-04T00:36:24.924Z,91.20
2019-03-04T00:38:52.619Z,91.40
2019-03-04T00:41:20.163Z,91.70
2019-03-04T00:43:48.091Z,92.00
2019-03-04T00:46:15.635Z,92.00
2019-03-04T00:48:43.166Z,91.90
2019-03-04T00:51:10.715Z,92.20
2019-03-04T00:53:38.184Z,92.40
2019-03-04T00:56:05.724Z,92.50
2019-03-04T00:58:33.256Z,92.80
2019-03-04T01:01:00.823Z,93.20
2019-03-04T01:03:28.359Z,93.20
2019-03-04T01:05:55.922Z,93.20
2019-03-04T01:08:23.460Z,93.50
2019-03-04T01:10:51.037Z,93.70
2019-03-04T01:13:18.640Z,94.00
2019-03-04T01:15:46.175Z,94.00
2019-03-04T01:18:14.461Z,94.00
2019-03-04T01:20:41.951Z,94.00
2019-03-04T01:23:09.444Z,94.00
2019-03-04T01:25:36.965Z,94.00
2019-03-04T01:28:04.811Z,94.40
2019-03-04T01:30:32.324Z,94.70
2019-03-04T01:32:59.858Z,94.00
2019-03-04T01:35:27.411Z,93.60
2019-03-04T01:37:54.871Z,93.20
2019-03-04T01:40:22.765Z,93.00
2019-03-04T01:42:50.456Z,92.60
2019-03-04T01:45:18.090Z,92.40
2019-03-04T01:47:45.675Z,92.50
2019-03-04T01:50:17.073Z,92.40
2019-03-04T01:52:44.848Z,92.40
2019-03-04T01:55:12.629Z,92.30
2019-03-04T01:57:40.138Z,92.30
2019-03-04T02:00:13.655Z,92.90
2019-03-04T02:02:41.136Z,93.40
2019-03-04T02:05:08.804Z,93.50
2019-03-04T02:07:36.458Z,93.20
2019-03-04T02:10:04.468Z,93.70
2019-03-04T02:12:32.030Z,93.60
2019-03-04T02:14:59.558Z,93.90
2019-03-04T02:17:27.043Z,94.30
2019-03-04T02:19:54.605Z,94.10
2019-03-04T02:22:22.176Z,94.30
2019-03-04T02:24:49.694Z,94.40
2019-03-04T02:27:17.212Z,94.40
2019-03-04T02:29:44.775Z,94.70
2019-03-04T02:32:12.329Z,94.90
2019-03-04T02:34:40.865Z,95.00
2019-03-04T02:37:08.380Z,95.20
2019-03-04T02:39:35.932Z,95.00
2019-03-04T02:42:03.504Z,95.00
2019-03-04T02:44:31.034Z,95.10
2019-03-04T02:46:58.601Z,95.30
2019-03-04T02:49:26.267Z,95.40
2019-03-04T02:51:53.969Z,95.60
2019-03-04T02:54:21.537Z,95.90
2019-03-04T02:56:49.430Z,95.60
2019-03-04T02:59:16.988Z,95.70
2019-03-04T03:01:44.535Z,95.60
2019-03-04T03:04:12.058Z,95.40
2019-03-04T03:06:39.628Z,95.40
2019-03-04T03:09:07.985Z,95.60
2019-03-04T03:11:35.519Z,95.90
2019-03-04T03:14:03.205Z,95.80
2019-03-04T03:16:30.771Z,95.50
2019-03-04T03:18:58.296Z,95.40
2019-03-04T03:21:25.819Z,95.60
2019-03-04T03:23:53.450Z,95.60
2019-03-04T03:26:20.996Z,95.70
2019-03-04T03:28:48.552Z,95.80
2019-03-04T03:31:16.140Z,96.20
2019-03-04T03:33:43.788Z,96.60
2019-03-04T03:36:11.722Z,97.20
2019-03-04T03:38:39.254Z,97.10
2019-03-04T03:41:06.876Z,96.60
2019-03-04T03:43:34.497Z,95.50
2019-03-04T03:46:01.979Z,95.30
2019-03-04T03:48:29.754Z,96.60
2019-03-04T03:50:57.276Z,96.00
2019-03-04T03:53:25.153Z,97.10
2019-03-04T03:55:52.989Z,97.60
2019-03-04T03:58:20.494Z,97.60
2019-03-04T04:00:48.111Z,98.20
2019-03-04T04:03:15.608Z,98.80
2019-03-04T04:05:43.264Z,98.60
2019-03-04T04:08:10.734Z,98.20
2019-03-04T04:10:38.317Z,98.10
2019-03-04T04:13:05.851Z,97.50
2019-03-04T04:15:33.380Z,98.60
2019-03-04T04:18:00.889Z,97.70
2019-03-04T04:20:28.781Z,98.30
2019-03-04T04:22:56.300Z,97.70
2019-03-04T04:25:24.240Z,97.70
2019-03-04T04:27:52.039Z,97.60
2019-03-04T04:30:21.291Z,98.20
2019-03-04T04:32:49.034Z,97.90
2019-03-04T04:35:16.514Z,97.90
2019-03-04T04:37:44.045Z,98.10
2019-03-04T04:40:11.740Z,97.70
2019-03-04T04:42:39.281Z,97.90
2019-03-04T04:45:07.074Z,98.30
2019-03-04T04:47:34.615Z,98.10
2019-03-04T04:50:02.176Z,98.40
2019-03-04T04:52:29.697Z,98.60
2019-03-04T04:54:57.195Z,98.30
2019-03-04T04:57:24.767Z,98.10
2019-03-04T04:59:52.317Z,97.70
2019-03-04T05:02:24.723Z,97.20
2019-03-04T05:04:52.286Z,97.50
2019-03-04T05:07:19.878Z,97.30
2019-03-04T05:09:47.675Z,96.50
2019-03-04T05:12:15.200Z,97.10
2019-03-04T05:14:42.729Z,96.60
2019-03-04T05:17:10.698Z,96.90
2019-03-04T05:19:38.227Z,97.10
2019-03-04T05:22:05.763Z,96.40
2019-03-04T05:24:33.299Z,96.50
2019-03-04T05:27:00.807Z,96.40
2019-03-04T05:29:28.394Z,96.30
2019-03-04T05:31:55.979Z,96.20
2019-03-04T05:34:23.545Z,96.00
2019-03-04T05:36:51.076Z,95.90
2019-03-04T05:39:18.641Z,95.60
2019-03-04T05:41:46.170Z,95.40
2019-03-04T05:44:13.749Z,95.40
2019-03-04T05:46:41.289Z,95.70
2019-03-04T05:49:08.868Z,95.70
2019-03-04T05:51:36.425Z,96.00
2019-03-04T05:54:04.368Z,95.90
2019-03-04T05:56:31.919Z,95.80
2019-03-04T05:58:59.495Z,95.50
2019-03-04T06:01:30.085Z,95.70
2019-03-04T06:04:00.190Z,95.90
2019-03-04T06:06:53.191Z,95.20
2019-03-04T06:09:21.116Z,95.70
2019-03-04T06:11:48.661Z,95.30
2019-03-04T06:14:16.251Z,95.30
2019-03-04T06:16:47.219Z,95.60
2019-03-04T06:19:12.983Z,95.90
2019-03-04T06:21:40.475Z,95.70
2019-03-04T06:24:08.204Z,95.60
2019-03-04T06:26:35.652Z,95.50
2019-03-04T06:29:03.394Z,95.40
2019-03-04T06:31:30.878Z,95.30
2019-03-04T06:33:58.335Z,94.70
2019-03-04T06:36:25.875Z,94.80
2019-03-04T06:38:53.383Z,94.90
2019-03-04T06:41:20.867Z,95.00
2019-03-04T06:43:48.352Z,95.10
2019-03-04T06:46:15.818Z,95.00
2019-03-04T06:48:43.323Z,95.10
2019-03-04T06:51:15.433Z,95.10
2019-03-04T06:54:03.967Z,94.20
2019-03-04T06:56:44.395Z,94.40
2019-03-04T06:59:17.768Z,94.00
2019-03-04T07:01:49.278Z,93.90
2019-03-04T07:04:21.535Z,93.90
2019-03-04T07:06:49.013Z,93.90
2019-03-04T07:09:18.611Z,93.80
2019-03-04T07:11:47.540Z,94.10
2019-03-04T07:14:15.015Z,93.70
2019-03-04T07:16:43.178Z,93.30
2019-03-04T07:19:12.533Z,93.00
2019-03-04T07:21:40.371Z,92.50
2019-03-04T07:24:07.856Z,92.60
2019-03-04T07:26:35.314Z,92.20
2019-03-04T07:29:03.174Z,91.40
2019-03-04T07:31:30.628Z,91.10
2019-03-04T07:33:58.103Z,90.60
2019-03-04T07:36:25.590Z,90.40
2019-03-04T07:38:57.562Z,90.20
2019-03-04T07:41:26.864Z,88.90
2019-03-04T07:43:54.801Z,90.80
2019-03-04T07:46:22.288Z,90.60
2019-03-04T07:48:49.815Z,90.60
2019-03-04T07:51:17.489Z,91.10
2019-03-04T07:53:46.620Z,91.90
2019-03-04T07:56:14.291Z,91.80
2019-03-04T07:58:53.951Z,90.70
2019-03-04T08:01:21.431Z,88.00
2019-03-04T08:03:48.925Z,87.70
2019-03-04T08:06:16.401Z,85.40
2019-03-04T08:09:31.928Z,84.10
2019-03-04T08:12:46.042Z,83.00
2019-03-04T08:15:13.623Z,81.20
2019-03-04T08:17:41.102Z,81.30
2019-03-04T08:20:10.115Z,81.40
2019-03-04T08:22:37.585Z,79.80
2019-03-04T08:25:06.699Z,78.90
2019-03-04T08:27:34.136Z,78.50
2019-03-04T08:30:02.252Z,77.00
2019-03-04T08:32:30.203Z,76.50
2019-03-04T08:34:57.652Z,74.50
2019-03-04T08:37:25.119Z,74.50
2019-03-04T08:39:52.603Z,74.00
2019-03-04T08:42:20.073Z,73.20
2019-03-04T08:44:47.575Z,72.00
2019-03-04T08:47:15.040Z,71.70
2019-03-04T08:49:42.553Z,68.10
2019-03-04T08:52:10.030Z,68.50
2019-03-04T08:54:37.484Z,68.60
2019-03-04T08:57:04.983Z,67.90
2019-03-04T08:59:32.437Z,64.70
2019-03-04T09:01:59.996Z,64.20
2019-03-04T09:04:27.455Z,63.00
2019-03-04T09:06:54.985Z,62.80
2019-03-04T09:09:22.463Z,60.50
2019-03-04T09:11:50.194Z,59.20
2019-03-04T09:14:17.755Z,59.60
2019-03-04T09:16:45.240Z,58.20
2019-03-04T09:19:12.805Z,59.10
2019-03-04T09:21:40.264Z,59.60
2019-03-04T09:24:07.709Z,60.10
2019-03-04T09:26:35.220Z,61.60
2019-03-04T09:29:02.663Z,63.40
2019-03-04T09:31:30.187Z,64.80
2019-03-04T09:33:58.230Z,65.60
2019-03-04T09:36:25.676Z,66.20
2019-03-04T09:38:53.168Z,66.60
2019-03-04T09:41:20.675Z,67.10
2019-03-04T09:43:48.128Z,67.70
2019-03-04T09:46:15.682Z,68.10
2019-03-04T09:48:43.142Z,68.50
2019-03-04T09:51:10.868Z,68.90
2019-03-04T09:53:39.775Z,68.70
2019-03-04T09:56:07.404Z,68.90
2019-03-04T09:58:34.988Z,69.40
2019-03-04T10:01:18.671Z,69.70
2019-03-04T10:04:15.838Z,69.80
2019-03-04T10:07:12.797Z,70.20
2019-03-04T10:09:56.851Z,71.00
2019-03-04T10:12:51.380Z,71.80
2019-03-04T10:15:51.558Z,72.00
2019-03-04T10:19:09.094Z,71.40
2019-03-04T10:21:52.379Z,71.00
2019-03-04T10:24:46.998Z,71.90
2019-03-04T10:27:44.621Z,72.00
2019-03-04T10:30:46.750Z,72.40
2019-03-04T10:33:38.852Z,71.90
2019-03-04T10:36:18.112Z,72.50
2019-03-04T10:39:28.743Z,72.30
2019-03-04T10:42:33.931Z,70.80
2019-03-04T10:45:44.764Z,70.60
2019-03-04T10:48:12.624Z,70.80
2019-03-04T10:50:40.059Z,71.00
2019-03-04T10:53:07.542Z,70.90
2019-03-04T10:55:42.090Z,70.70
2019-03-04T10:58:04.275Z,71.30
2019-03-04T11:00:31.767Z,72.10
2019-03-04T11:02:59.211Z,71.70
2019-03-04T11:05:26.735Z,71.40
2019-03-04T11:07:54.573Z,71.50
2019-03-04T11:10:22.056Z,72.30
2019-03-04T11:12:49.555Z,72.00
2019-03-04T11:15:21.192Z,71.30
2019-03-04T11:17:49.255Z,71.50
2019-03-04T11:20:16.709Z,71.50
2019-03-04T11:22:44.153Z,71.00
2019-03-04T11:25:12.026Z,70.60
2019-03-04T11:27:39.608Z,70.40
2019-03-04T11:30:07.755Z,69.70
2019-03-04T11:32:35.280Z,69.30
2019-03-04T11:35:03.530Z,69.50
2019-03-04T11:37:30.980Z,69.40
2019-03-04T11:40:05.408Z,69.10
2019-03-04T11:42:32.854Z,69.60
2019-03-04T11:45:00.412Z,70.30
2019-03-04T11:47:27.910Z,70.70
2019-03-04T11:49:55.354Z,70.80
2019-03-04T11:52:22.836Z,69.50
2019-03-04T11:54:50.565Z,69.70
2019-03-04T11:57:18.315Z,69.60
2019-03-04T11:59:51.856Z,68.20
2019-03-04T12:02:20.846Z,68.20
2019-03-04T12:04:48.331Z,68.20
2019-03-04T12:07:15.944Z,67.20
2019-03-04T12:09:43.431Z,67.90
2019-03-04T12:12:10.931Z,68.50
2019-03-04T12:14:38.442Z,68.30
2019-03-04T12:17:06.231Z,68.40
2019-03-04T12:19:33.747Z,68.00
2019-03-04T12:22:01.255Z,67.90
2019-03-04T12:24:28.788Z,68.40
2019-03-04T12:26:56.652Z,68.10
2019-03-04T12:29:24.168Z,68.60
2019-03-04T12:32:01.503Z,68.40
2019-03-04T12:34:29.004Z,68.90
2019-03-04T12:36:56.501Z,69.10
2019-03-04T12:39:24.024Z,69.90
2019-03-04T12:41:51.505Z,70.40
2019-03-04T12:44:19.011Z,70.50
2019-03-04T12:46:46.881Z,70.70
2019-03-04T12:49:14.371Z,70.90
2019-03-04T12:51:41.877Z,71.40
2019-03-04T12:54:09.356Z,72.10
2019-03-04T12:56:37.221Z,72.20
2019-03-04T12:59:04.735Z,72.40
2019-03-04T13:01:32.255Z,72.60
2019-03-04T13:03:59.761Z,72.30
2019-03-04T13:06:27.231Z,71.80
2019-03-04T13:08:54.804Z,71.80
2019-03-04T13:11:22.295Z,70.90
2019-03-04T13:13:49.828Z,70.30
2019-03-04T13:16:17.407Z,69.70
2019-03-04T13:18:44.915Z,68.60
2019-03-04T13:21:12.774Z,66.90
2019-03-04T13:23:40.290Z,65.10
2019-03-04T13:26:08.187Z,62.50
2019-03-04T13:28:35.820Z,61.90
2019-03-04T13:31:03.396Z,60.90
2019-03-04T13:33:31.517Z,61.50
2019-03-04T13:35:59.319Z,62.90
2019-03-04T13:38:26.888Z,64.30
2019-03-04T13:40:54.771Z,65.70
2019-03-04T13:43:22.252Z,65.90
2019-03-04T13:45:49.757Z,67.30
2019-03-04T13:48:17.364Z,66.40
2019-03-04T13:50:44.822Z,66.80
2019-03-04T13:56:07.617Z,66.80
2019-03-04T13:58:35.236Z,67.60
2019-03-04T14:01:04.471Z,67.90
2019-03-04T14:03:31.972Z,70.20
2019-03-04T14:05:59.446Z,77.10
2019-03-04T14:08:26.895Z,79.40
2019-03-04T14:10:54.393Z,79.00
2019-03-04T14:13:22.250Z,82.70
2019-03-04T14:15:50.054Z,90.60
2019-03-04T14:18:17.527Z,91.20
2019-03-04T14:20:44.995Z,92.00
2019-03-04T14:23:12.507Z,92.30
2019-03-04T14:25:40.121Z,91.90
2019-03-04T14:28:07.626Z,92.60
2019-03-04T14:30:35.111Z,92.30
2019-03-04T14:33:02.713Z,93.80
2019-03-04T14:35:30.557Z,92.70
2019-03-04T14:37:58.427Z,91.70
2019-03-04T14:40:25.922Z,90.10
2019-03-04T14:42:55.170Z,90.20
2019-03-04T14:45:22.870Z,90.20
2019-03-04T14:47:50.351Z,90.90
2019-03-04T14:50:17.866Z,91.10
2019-03-04T14:52:45.760Z,91.40
2019-03-04T14:55:15.116Z,92.00
2019-03-04T14:57:42.689Z,93.00
2019-03-04T15:00:15.800Z,93.90
2019-03-04T15:02:43.252Z,95.40
2019-03-04T15:05:12.561Z,96.80
2019-03-04T15:07:40.052Z,97.40
2019-03-04T15:10:07.522Z,97.80
2019-03-04T15:12:35.014Z,98.70
2019-03-04T15:15:03.068Z,97.50
2019-03-04T15:17:30.730Z,97.90
2019-03-04T15:19:58.261Z,97.20
2019-03-04T15:22:34.685Z,97.40
2019-03-04T15:24:55.390Z,97.60
2019-03-04T15:27:22.855Z,97.70
2019-03-04T15:32:45.923Z,99.00
2019-03-04T15:35:13.386Z,99.00
2019-03-04T15:37:41.232Z,99.40
2019-03-04T15:40:08.747Z,99.90
2019-03-04T15:42:36.203Z,99.90
2019-03-04T15:45:04.143Z,99.90
2019-03-04T15:47:31.610Z,99.90
2019-03-04T15:49:59.111Z,99.90
2019-03-04T15:52:26.614Z,99.70
2019-03-04T15:54:54.101Z,99.20
2019-03-04T15:57:21.793Z,98.90
2019-03-04T15:59:49.311Z,99.80
2019-03-04T16:02:17.160Z,99.90
2019-03-04T16:04:44.946Z,99.90
2019-03-04T16:07:13.432Z,99.90
2019-03-04T16:09:41.011Z,99.90
2019-03-04T16:12:09.043Z,99.90
2019-03-04T16:14:36.485Z,99.90
2019-03-04T16:17:04.618Z,99.90
2019-03-04T16:19:32.081Z,99.90
2019-03-04T16:21:59.859Z,99.90
2019-03-04T16:24:27.340Z,99.90
2019-03-04T16:26:54.797Z,99.90
2019-03-04T16:29:22.299Z,99.90
2019-03-04T16:31:49.766Z,99.90
2019-03-04T16:34:17.347Z,99.90
2019-03-04T16:36:44.829Z,99.90
2019-03-04T16:39:12.295Z,99.90
2019-03-04T16:41:39.868Z,99.90
2019-03-04T16:44:07.335Z,99.90
2019-03-04T16:46:34.841Z,99.90
2019-03-04T16:49:02.289Z,99.90
2019-03-04T16:51:29.830Z,99.90
2019-03-04T16:53:57.369Z,99.90
2019-03-04T16:56:25.246Z,99.90
2019-03-04T16:58:53.161Z,99.90
2019-03-04T17:01:20.635Z,99.90
2019-03-04T17:03:48.128Z,99.90
2019-03-04T17:06:15.646Z,99.90
2019-03-04T17:08:43.120Z,99.90
2019-03-04T17:11:10.655Z,99.90
2019-03-04T17:13:38.114Z,99.90
2019-03-04T17:16:05.569Z,99.90
2019-03-04T17:18:33.122Z,99.90
2019-03-04T17:21:00.676Z,99.90
2019-03-04T17:23:28.179Z,99.90
2019-03-04T17:25:55.709Z,99.90
2019-03-04T17:28:23.215Z,99.90
2019-03-04T17:30:50.721Z,99.90
2019-03-04T17:33:18.299Z,99.90
2019-03-04T17:35:45.986Z,99.90
2019-03-04T17:38:13.980Z,99.90
2019-03-04T17:40:41.617Z,99.90
2019-03-04T17:43:09.157Z,99.90
2019-03-04T17:45:36.842Z,99.90
2019-03-04T17:48:04.499Z,99.90
2019-03-04T17:50:33.627Z,99.90
2019-03-04T17:53:01.519Z,99.90
2019-03-04T17:55:29.104Z,99.60
2019-03-04T17:57:57.111Z,99.90
2019-03-04T18:00:24.697Z,99.90
2019-03-04T18:02:52.212Z,99.80
2019-03-04T18:05:20.689Z,99.90
2019-03-04T18:07:49.516Z,99.30
2019-03-04T18:10:17.488Z,98.40
2019-03-04T18:12:44.990Z,97.80
2019-03-04T18:15:14.983Z,97.40
2019-03-04T18:17:42.620Z,98.10
2019-03-04T18:20:10.903Z,98.10
2019-03-04T18:22:38.511Z,97.40
2019-03-04T18:25:10.618Z,97.50
2019-03-04T18:27:47.868Z,97.70
2019-03-04T18:30:44.961Z,97.30
2019-03-04T18:34:01.113Z,96.80
2019-03-04T18:36:50.591Z,96.60
2019-03-04T18:39:48.700Z,96.80
2019-03-04T18:42:58.571Z,96.70
2019-03-04T18:46:00.274Z,96.20
2019-03-04T18:48:53.951Z,96.20
2019-03-04T18:51:21.885Z,95.50
2019-03-04T18:53:51.009Z,95.80
2019-03-04T18:56:21.981Z,96.10
2019-03-04T18:58:48.509Z,95.90
2019-03-04T19:01:16.037Z,95.90
2019-03-04T19:03:43.739Z,95.80
2019-03-04T19:06:11.462Z,95.30
2019-03-04T19:08:38.988Z,95.50
2019-03-04T19:11:06.571Z,95.50
2019-03-04T19:13:34.315Z,95.70
2019-03-04T19:16:01.837Z,95.80
2019-03-04T19:18:29.919Z,95.60
2019-03-04T19:20:57.955Z,95.30
2019-03-04T19:23:25.496Z,95.50
2019-03-04T19:25:53.380Z,95.70
2019-03-04T19:28:20.962Z,96.10
2019-03-04T19:30:48.962Z,96.00
2019-03-04T19:33:16.534Z,95.80
2019-03-04T19:35:44.375Z,95.90
2019-03-04T19:38:13.255Z,96.10
2019-03-04T19:40:40.860Z,95.80
2019-03-04T19:43:08.504Z,96.20
2019-03-04T19:45:37.815Z,96.20
2019-03-04T19:48:06.165Z,96.20
2019-03-04T19:50:33.709Z,96.50
2019-03-04T19:53:01.312Z,96.50
2019-03-04T19:55:28.895Z,96.30
2019-03-04T19:57:56.447Z,96.40
2019-03-04T20:00:25.204Z,96.30
2019-03-04T20:02:53.279Z,96.70
2019-03-04T20:05:22.548Z,96.50
2019-03-04T20:07:50.177Z,96.40
2019-03-04T20:10:18.278Z,96.20
2019-03-04T20:12:45.895Z,96.20
2019-03-04T20:15:18.758Z,96.30
2019-03-04T20:17:46.747Z,96.40
2019-03-04T20:20:14.270Z,96.20
2019-03-04T20:22:42.002Z,96.20
2019-03-04T20:25:09.782Z,96.60
2019-03-04T20:27:37.276Z,96.50
2019-03-04T20:30:05.839Z,96.60
2019-03-04T20:32:33.379Z,96.50
2019-03-04T20:35:00.991Z,96.50
2019-03-04T20:37:29.962Z,96.30
2019-03-04T20:39:57.815Z,96.20
2019-03-04T20:42:25.359Z,96.40
2019-03-04T20:44:53.002Z,96.60
2019-03-04T20:47:20.598Z,97.00
2019-03-04T20:49:48.147Z,96.50
2019-03-04T20:52:15.721Z,96.70
2019-03-04T20:54:43.315Z,96.90
2019-03-04T20:57:10.830Z,96.80
2019-03-04T20:59:38.376Z,96.90
2019-03-04T21:02:06.002Z,97.00
2019-03-04T21:04:33.562Z,97.00
2019-03-04T21:07:01.086Z,97.10
2019-03-04T21:09:29.075Z,97.00
2019-03-04T21:11:56.614Z,97.30
2019-03-04T21:14:24.174Z,97.60
2019-03-04T21:16:52.146Z,97.50
2019-03-04T21:19:19.622Z,97.80
2019-03-04T21:21:47.667Z,97.70
2019-03-04T21:24:15.428Z,97.70
2019-03-04T21:26:45.696Z,97.70
2019-03-04T21:29:47.569Z,97.40
2019-03-04T21:32:20.224Z,97.50
2019-03-04T21:35:44.920Z,97.70
2019-03-04T21:38:13.059Z,97.80
2019-03-04T21:41:00.462Z,97.80
2019-03-04T21:43:36.165Z,97.90
2019-03-04T21:46:43.132Z,97.90
2019-03-04T21:49:12.466Z,98.10
2019-03-04T21:52:20.245Z,98.10
2019-03-04T21:54:45.982Z,98.10
2019-03-04T21:57:44.326Z,98.00
2019-03-04T22:00:16.567Z,97.90
2019-03-04T22:02:56.535Z,98.20
2019-03-04T22:05:24.335Z,98.10
2019-03-04T22:07:52.151Z,98.40
2019-03-04T22:10:19.712Z,98.40
2019-03-04T22:12:47.737Z,98.40
2019-03-04T22:15:16.626Z,98.50
2019-03-04T22:17:44.234Z,98.60
2019-03-04T22:20:12.063Z,98.80
2019-03-04T22:22:39.918Z,98.80
2019-03-04T22:25:08.253Z,99.00
2019-03-04T22:27:35.807Z,99.00
2019-03-04T22:30:05.412Z,99.20
2019-03-04T22:32:33.554Z,99.40
2019-03-04T22:35:04.061Z,99.50
2019-03-04T22:37:51.092Z,99.30
2019-03-04T22:40:19.350Z,99.30
2019-03-04T22:42:47.011Z,99.30
2019-03-04T22:45:16.040Z,99.10
2019-03-04T22:47:44.000Z,99.20
2019-03-04T22:50:12.204Z,99.20
2019-03-04T22:52:40.561Z,99.10
2019-03-04T22:55:11.141Z,98.90
2019-03-04T22:57:38.683Z,98.80
2019-03-04T23:00:49.948Z,98.70
2019-03-04T23:03:17.536Z,98.50
2019-03-04T23:05:45.562Z,98.40
2019-03-04T23:08:13.204Z,99.40
2019-03-04T23:10:43.438Z,99.80
2019-03-04T23:13:47.562Z,99.90
2019-03-04T23:16:17.587Z,99.90
2019-03-04T23:18:45.145Z,99.90
2019-03-04T23:21:12.720Z,99.90
2019-03-04T23:23:40.285Z,99.90
2019-03-04T23:26:07.814Z,99.90
2019-03-04T23:28:35.341Z,99.90
2019-03-04T23:31:02.892Z,99.90
2019-03-04T23:33:30.421Z,99.90
2019-03-04T23:35:57.990Z,99.90
2019-03-04T23:38:25.530Z,99.90
2019-03-04T23:40:53.134Z,99.90
2019-03-04T23:43:20.820Z,99.90
2019-03-04T23:45:48.416Z,99.90
2019-03-04T23:48:15.942Z,99.90
2019-03-04T23:50:43.755Z,99.90
2019-03-04T23:53:11.275Z,99.90
2019-03-04T23:55:38.871Z,99.90
2019-03-04T23:58:06.619Z,99.90
